createdAt,value
2023-04-25T05:47:22.448Z,12.35
2023-04-25T05:50:14.189Z,12.35
2023-04-25T05:52:59.471Z,11.89
2023-04-25T05:55:44.858Z,12.04
2023-04-25T05:58:30.746Z,12.15
2023-04-25T06:01:16.967Z,12.18
2023-04-25T06:04:03.050Z,12.30
2023-04-25T06:06:49.246Z,12.39
2023-04-25T06:09:41.181Z,12.48
2023-04-25T06:12:26.426Z,12.58
2023-04-25T06:15:24.281Z,12.65
2023-04-25T06:18:13.414Z,12.81
2023-04-25T06:20:59.359Z,12.77
2023-04-25T06:23:44.801Z,12.88
2023-04-25T06:26:32.313Z,13.05
2023-04-25T06:29:17.814Z,13.13
2023-04-25T06:32:03.092Z,13.18
2023-04-25T06:34:48.324Z,13.02
2023-04-25T06:37:35.292Z,13.16
2023-04-25T06:40:21.266Z,13.05
2023-04-25T06:43:06.372Z,13.24
2023-04-25T06:45:53.695Z,13.53
2023-04-25T06:48:45.254Z,13.89
2023-04-25T06:51:31.751Z,14.22
2023-04-25T06:54:20.400Z,14.68
2023-04-25T06:57:06.687Z,14.90
2023-04-25T06:59:54.270Z,14.73
2023-04-25T07:02:39.955Z,14.65
2023-04-25T07:05:27.456Z,14.97
2023-04-25T07:08:13.871Z,15.36
2023-04-25T07:10:59.264Z,15.57
2023-04-25T07:13:44.533Z,15.62
2023-04-25T07:16:30.618Z,15.72
2023-04-25T07:19:15.891Z,15.89
2023-04-25T07:22:03.297Z,15.82
2023-04-25T07:24:51.672Z,15.91
2023-04-25T07:27:40.410Z,15.71
2023-04-25T07:30:27.000Z,16.08
2023-04-25T07:33:12.661Z,15.95
2023-04-25T07:35:59.435Z,15.94
2023-04-25T07:38:45.520Z,16.03
2023-04-25T07:41:30.936Z,16.46
2023-04-25T07:44:17.274Z,16.96
2023-04-25T07:47:04.463Z,17.30
2023-04-25T07:49:52.083Z,17.82
2023-04-25T07:52:38.891Z,18.18
2023-04-25T07:55:24.597Z,18.22
2023-04-25T07:58:12.492Z,18.44
2023-04-25T08:00:57.660Z,18.93
2023-04-25T08:03:43.045Z,18.81
2023-04-25T08:06:29.028Z,17.40
2023-04-25T08:09:14.573Z,17.89
2023-04-25T08:12:01.628Z,17.31
2023-04-25T08:14:47.410Z,17.46
2023-04-25T08:17:32.676Z,17.25
2023-04-25T08:20:18.147Z,17.42
2023-04-25T08:23:03.383Z,17.73
2023-04-25T08:25:48.832Z,18.43
2023-04-25T08:28:35.248Z,18.95
2023-04-25T08:31:20.990Z,18.56
2023-04-25T08:34:08.550Z,18.58
2023-04-25T08:36:54.021Z,19.86
2023-04-25T08:39:46.565Z,23.72
2023-04-25T08:42:32.546Z,25.68
2023-04-25T08:45:18.193Z,26.50
2023-04-25T08:48:05.694Z,28.15
2023-04-25T08:50:53.281Z,28.42
2023-04-25T08:53:43.862Z,29.02
2023-04-25T08:56:31.135Z,29.69
2023-04-25T08:59:17.838Z,30.51
2023-04-25T09:02:06.230Z,31.69
2023-04-25T09:04:52.005Z,33.01
2023-04-25T09:07:37.265Z,33.81
2023-04-25T09:10:22.528Z,34.55
2023-04-25T09:13:19.119Z,33.19
2023-04-25T09:16:04.584Z,33.28
2023-04-25T09:18:50.686Z,32.42
2023-04-25T09:21:36.603Z,32.89
2023-04-25T09:24:52.806Z,34.61
2023-04-25T09:27:51.033Z,34.85
2023-04-25T09:30:38.062Z,34.15
2023-04-25T09:33:29.680Z,34.64
2023-04-25T09:36:15.346Z,32.77
2023-04-25T09:39:01.197Z,34.72
2023-04-25T09:41:46.823Z,35.09
2023-04-25T09:44:32.486Z,36.59
2023-04-25T09:47:19.017Z,36.97
2023-04-25T09:50:04.998Z,35.32
2023-04-25T09:53:04.900Z,34.90
2023-04-25T09:55:50.446Z,33.20
2023-04-25T09:58:38.219Z,37.38
2023-04-25T10:01:24.496Z,31.80
2023-04-25T10:04:12.424Z,28.66
2023-04-25T10:06:58.964Z,31.50
2023-04-25T10:09:46.957Z,27.56
2023-04-25T10:12:36.613Z,28.77
2023-04-25T10:15:23.347Z,31.24
2023-04-25T10:18:09.585Z,34.72
2023-04-25T10:21:01.621Z,29.67
2023-04-25T10:23:47.390Z,28.02
2023-04-25T10:26:34.587Z,33.76
2023-04-25T10:29:25.561Z,34.51
2023-04-25T10:32:11.596Z,35.95
2023-04-25T10:34:58.460Z,34.33
2023-04-25T10:38:00.836Z,35.93
2023-04-25T10:41:11.999Z,29.17
2023-04-25T10:44:02.414Z,30.17
2023-04-25T10:46:48.065Z,30.92
2023-04-25T10:49:35.635Z,35.53
2023-04-25T10:52:24.146Z,32.20
2023-04-25T10:55:10.007Z,31.49
2023-04-25T11:00:56.799Z,34.93
2023-04-25T11:03:48.469Z,35.44
2023-04-25T11:07:11.383Z,36.24
2023-04-25T11:09:57.111Z,33.92
2023-04-25T11:12:42.870Z,35.28
2023-04-25T11:15:28.597Z,37.46
2023-04-25T11:18:17.735Z,35.84
2023-04-25T11:21:04.116Z,33.43
2023-04-25T11:23:49.541Z,31.54
2023-04-25T11:26:34.743Z,36.34
2023-04-25T11:29:23.769Z,33.83
2023-04-25T11:32:09.258Z,32.69
2023-04-25T11:34:54.684Z,34.09
2023-04-25T11:37:41.178Z,35.39
2023-04-25T11:40:26.763Z,32.95
2023-04-25T11:43:12.778Z,29.50
2023-04-25T11:45:58.189Z,28.12
2023-04-25T11:48:44.105Z,29.78
2023-04-25T11:51:29.532Z,31.68
2023-04-25T11:54:15.592Z,28.30
2023-04-25T11:57:02.430Z,26.04
2023-04-25T11:59:47.725Z,28.56
2023-04-25T12:02:33.371Z,32.04
2023-04-25T12:05:30.942Z,34.15
2023-04-25T12:08:18.068Z,33.86
